createdAt,value
2019-04-25T00:01:21.542Z,70.87
2019-04-25T00:03:51.409Z,81.00
2019-04-25T00:06:21.520Z,116.80
2019-04-25T00:08:51.562Z,77.93
2019-04-25T00:11:21.856Z,76.53
2019-04-25T00:13:51.606Z,82.03
2019-04-25T00:16:22.549Z,52.67
2019-04-25T00:18:51.729Z,76.57
2019-04-25T00:21:34.573Z,86.03
2019-04-25T00:24:04.976Z,95.43
2019-04-25T00:26:37.809Z,65.07
2019-04-25T00:29:06.611Z,68.93
2019-04-25T00:31:35.436Z,63.70
2019-04-25T00:34:04.942Z,106.67
2019-04-25T00:36:33.726Z,88.03
2019-04-25T00:39:02.758Z,65.73
2019-04-25T00:41:32.062Z,70.43
2019-04-25T00:44:02.405Z,95.73
2019-04-25T00:46:32.204Z,113.27
2019-04-25T00:49:02.511Z,72.63
2019-04-25T00:51:31.768Z,78.77
2019-04-25T00:54:02.379Z,73.90
2019-04-25T00:56:32.203Z,77.93
2019-04-25T00:59:11.866Z,57.80
2019-04-25T01:01:58.500Z,69.53
2019-04-25T01:04:28.020Z,77.13
2019-04-25T01:06:56.753Z,82.67
2019-04-25T01:09:27.281Z,79.33
2019-04-25T01:11:56.205Z,79.20
2019-04-25T01:14:24.985Z,82.40
2019-04-25T01:16:54.801Z,70.10
2019-04-25T01:19:23.749Z,54.50
2019-04-25T01:21:54.157Z,71.73
2019-04-25T01:24:24.024Z,78.37
2019-04-25T01:26:53.802Z,54.20
2019-04-25T01:29:23.513Z,57.80
2019-04-25T01:31:54.082Z,86.77
2019-04-25T01:34:41.214Z,68.77
2019-04-25T01:37:11.803Z,61.30
2019-04-25T01:39:45.144Z,63.37
2019-04-25T01:42:18.533Z,69.73
2019-04-25T01:44:49.501Z,66.00
2019-04-25T01:47:19.404Z,53.70
2019-04-25T01:49:48.837Z,71.10
2019-04-25T01:52:17.785Z,57.53
2019-04-25T01:54:46.552Z,58.53
2019-04-25T01:57:16.590Z,69.87
2019-04-25T01:59:45.341Z,72.47
2019-04-25T02:02:15.943Z,59.23
2019-04-25T02:04:44.665Z,67.43
2019-04-25T02:07:13.603Z,60.73
2019-04-25T02:09:43.590Z,67.73
2019-04-25T02:12:15.511Z,64.13
2019-04-25T02:14:44.622Z,49.40
2019-04-25T02:17:14.142Z,52.07
2019-04-25T02:19:44.181Z,53.73
2019-04-25T02:22:14.572Z,46.43
2019-04-25T02:24:43.808Z,59.27
2019-04-25T02:27:13.546Z,64.97
2019-04-25T02:29:44.463Z,39.33
2019-04-25T02:32:14.535Z,37.33
2019-04-25T02:34:45.606Z,41.83
2019-04-25T02:37:14.546Z,46.70
2019-04-25T02:39:44.775Z,56.60
2019-04-25T02:42:16.316Z,54.53
2019-04-25T02:44:45.820Z,43.00
2019-04-25T02:47:24.741Z,43.27
2019-04-25T02:49:55.926Z,54.73
2019-04-25T02:52:26.291Z,54.63
2019-04-25T02:54:56.970Z,59.03
2019-04-25T02:57:25.534Z,60.27
2019-04-25T02:59:54.829Z,51.10
2019-04-25T03:02:24.903Z,47.87
2019-04-25T03:04:54.566Z,56.57
2019-04-25T03:07:24.672Z,54.27
2019-04-25T03:09:54.725Z,60.83
2019-04-25T03:12:30.739Z,70.67
2019-04-25T03:14:54.934Z,56.20
2019-04-25T03:17:24.726Z,45.90
2019-04-25T03:20:01.938Z,71.37
2019-04-25T03:22:34.604Z,73.40
2019-04-25T03:25:06.982Z,66.20
2019-04-25T03:27:34.586Z,61.73
2019-04-25T03:30:07.245Z,76.43
2019-04-25T03:32:35.642Z,82.67
2019-04-25T03:35:05.845Z,70.17
2019-04-25T03:37:35.313Z,75.70
2019-04-25T03:40:06.660Z,55.97
2019-04-25T03:42:36.414Z,46.33
2019-04-25T03:45:06.099Z,89.57
2019-04-25T03:47:35.438Z,84.73
2019-04-25T03:50:07.972Z,61.47
2019-04-25T03:52:36.926Z,81.90
2019-04-25T03:55:07.746Z,82.83
2019-04-25T03:57:37.438Z,85.33
2019-04-25T04:00:07.538Z,59.53
2019-04-25T04:02:36.327Z,83.90
2019-04-25T04:05:07.268Z,56.83
2019-04-25T04:07:36.545Z,86.73
2019-04-25T04:10:06.713Z,69.73
2019-04-25T04:12:35.678Z,90.07
2019-04-25T04:15:06.953Z,64.00
2019-04-25T04:17:40.398Z,48.70
2019-04-25T04:20:11.196Z,92.50
2019-04-25T04:22:56.930Z,91.43
2019-04-25T04:25:25.937Z,79.40
2019-04-25T04:27:54.670Z,67.33
2019-04-25T04:30:24.166Z,69.30
2019-04-25T04:32:53.683Z,78.37
2019-04-25T04:35:23.492Z,65.50
2019-04-25T04:37:54.083Z,54.63
2019-04-25T04:40:24.278Z,65.70
2019-04-25T04:42:53.354Z,59.23
2019-04-25T04:45:23.284Z,44.87
2019-04-25T04:47:53.313Z,51.97
2019-04-25T04:50:23.273Z,51.27
2019-04-25T04:52:53.970Z,49.97
2019-04-25T04:55:23.205Z,41.70
2019-04-25T04:57:52.146Z,52.27
2019-04-25T05:00:22.820Z,45.67
2019-04-25T05:03:12.599Z,61.90
2019-04-25T05:05:44.032Z,50.93
2019-04-25T05:08:17.330Z,44.20
2019-04-25T05:10:46.114Z,46.60
2019-04-25T05:13:16.640Z,64.40
2019-04-25T05:15:45.313Z,45.63
2019-04-25T05:18:15.725Z,54.27
2019-04-25T05:20:44.451Z,42.53
2019-04-25T05:23:14.830Z,55.60
2019-04-25T05:25:44.237Z,57.37
2019-04-25T05:28:15.551Z,61.40
2019-04-25T05:30:57.174Z,49.03
2019-04-25T05:33:25.969Z,53.47
2019-04-25T05:35:54.696Z,64.70
2019-04-25T05:38:24.361Z,74.23
2019-04-25T05:40:58.750Z,63.00
2019-04-25T05:43:28.982Z,65.50
2019-04-25T05:45:57.774Z,64.87
2019-04-25T05:48:26.501Z,72.33
2019-04-25T05:50:55.318Z,62.63
2019-04-25T05:53:25.076Z,74.17
2019-04-25T05:55:54.179Z,83.70
2019-04-25T05:58:24.520Z,82.23
2019-04-25T06:00:54.693Z,86.07
2019-04-25T06:03:24.987Z,93.87
2019-04-25T06:05:53.973Z,75.27
2019-04-25T06:08:25.605Z,91.37
2019-04-25T06:10:56.361Z,79.77
2019-04-25T06:13:35.723Z,62.33
2019-04-25T06:16:06.101Z,85.07
2019-04-25T06:18:43.881Z,102.47
2019-04-25T06:21:14.101Z,74.97
2019-04-25T06:24:00.773Z,86.00
2019-04-25T06:26:35.407Z,61.47
2019-04-25T06:28:59.979Z,91.13
2019-04-25T06:31:29.311Z,80.50
2019-04-25T06:33:59.818Z,67.27
2019-04-25T06:36:29.070Z,85.90
2019-04-25T06:38:57.773Z,92.67
2019-04-25T06:41:27.071Z,87.57
2019-04-25T06:43:57.481Z,91.63
2019-04-25T06:46:28.696Z,79.07
2019-04-25T06:49:03.528Z,76.93
2019-04-25T06:51:50.661Z,66.43
2019-04-25T06:54:21.010Z,65.87
2019-04-25T06:56:50.932Z,72.27
2019-04-25T06:59:19.773Z,84.30
2019-04-25T07:01:48.721Z,64.67
2019-04-25T07:04:17.558Z,85.37
2019-04-25T07:06:46.326Z,58.87
2019-04-25T07:09:15.061Z,75.87
2019-04-25T07:11:44.230Z,74.67
2019-04-25T07:14:14.235Z,76.37
2019-04-25T07:16:43.367Z,79.20
2019-04-25T07:19:14.259Z,76.40
2019-04-25T07:21:44.269Z,87.43
2019-04-25T07:24:14.517Z,77.10
2019-04-25T07:26:45.358Z,85.10
2019-04-25T07:29:26.101Z,73.97
2019-04-25T07:32:00.022Z,70.07
2019-04-25T07:34:30.518Z,78.40
2019-04-25T07:36:59.253Z,73.27
2019-04-25T07:39:28.017Z,62.83
2019-04-25T07:41:56.753Z,61.67
2019-04-25T07:44:38.319Z,72.83
2019-04-25T07:46:55.893Z,59.13
2019-04-25T07:49:24.626Z,53.17
2019-04-25T07:51:53.732Z,66.07
2019-04-25T07:54:24.158Z,54.97
2019-04-25T07:56:54.808Z,42.10
2019-04-25T07:59:23.797Z,36.87
2019-04-25T08:01:53.529Z,47.33
2019-04-25T08:04:23.575Z,38.17
2019-04-25T08:06:54.157Z,29.77
2019-04-25T08:09:24.305Z,41.77
2019-04-25T08:11:54.725Z,28.90
2019-04-25T08:14:32.061Z,32.57
2019-04-25T08:17:06.441Z,31.90
2019-04-25T08:19:35.687Z,25.17
2019-04-25T08:22:05.586Z,25.50
2019-04-25T08:24:37.256Z,28.57
2019-04-25T08:27:06.763Z,19.47
2019-04-25T08:29:37.959Z,17.93
2019-04-25T08:32:05.946Z,12.50
2019-04-25T08:34:36.033Z,15.23
2019-04-25T08:37:17.060Z,11.33
2019-04-25T08:39:37.329Z,7.47
2019-04-25T08:42:05.882Z,10.57
2019-04-25T08:44:35.704Z,7.83
2019-04-25T08:47:04.914Z,8.00
2019-04-25T08:49:36.191Z,7.50
2019-04-25T08:52:06.012Z,4.70
2019-04-25T08:54:49.745Z,4.73
2019-04-25T08:57:20.118Z,6.33
2019-04-25T08:59:55.594Z,8.83
2019-04-25T09:02:26.126Z,3.37
2019-04-25T09:04:56.498Z,4.97
2019-04-25T09:07:25.338Z,10.10
2019-04-25T09:09:54.130Z,7.43
2019-04-25T09:12:24.028Z,7.43
2019-04-25T09:14:54.184Z,2.07
2019-04-25T09:17:24.337Z,8.10
2019-04-25T09:19:54.206Z,5.20
2019-04-25T09:22:24.199Z,6.03
2019-04-25T09:24:54.026Z,6.33
2019-04-25T09:27:23.502Z,4.80
2019-04-25T09:29:54.070Z,4.03
2019-04-25T09:32:23.837Z,6.87
2019-04-25T09:34:54.053Z,3.20
2019-04-25T09:37:24.526Z,5.47
2019-04-25T09:40:09.857Z,2.17
2019-04-25T09:42:39.484Z,5.73
2019-04-25T09:45:10.766Z,1.77
2019-04-25T09:47:41.312Z,5.83
2019-04-25T09:50:14.879Z,6.77
2019-04-25T09:52:44.364Z,6.87
2019-04-25T09:55:33.955Z,6.73
2019-04-25T09:58:07.237Z,7.27
2019-04-25T10:00:38.408Z,4.53
2019-04-25T10:03:07.607Z,3.73
2019-04-25T10:05:37.078Z,4.40
2019-04-25T10:08:06.286Z,4.70
2019-04-25T10:10:35.014Z,8.10
2019-04-25T10:13:05.987Z,2.43
2019-04-25T10:15:52.915Z,4.97
2019-04-25T10:18:23.383Z,6.53
2019-04-25T10:20:54.173Z,2.67
2019-04-25T10:23:24.057Z,2.50
2019-04-25T10:25:53.817Z,7.03
2019-04-25T10:28:23.401Z,4.30
2019-04-25T10:30:53.107Z,3.97
2019-04-25T10:33:24.543Z,3.30
2019-04-25T10:35:58.903Z,4.07
2019-04-25T10:38:26.237Z,4.10
2019-04-25T10:40:55.170Z,2.53
2019-04-25T10:43:24.060Z,6.20
2019-04-25T10:45:55.122Z,3.47
2019-04-25T10:48:24.218Z,5.03
2019-04-25T10:50:53.862Z,5.63
2019-04-25T10:53:25.252Z,4.23
2019-04-25T10:55:54.077Z,9.23
2019-04-25T10:58:22.814Z,13.47
2019-04-25T11:00:53.645Z,16.50
2019-04-25T11:03:26.989Z,19.80
2019-04-25T11:05:56.016Z,18.13
2019-04-25T11:08:25.056Z,15.83
2019-04-25T11:10:54.963Z,17.10
2019-04-25T11:13:23.690Z,14.33
2019-04-25T11:15:52.522Z,17.70
2019-04-25T11:18:21.523Z,12.33
2019-04-25T11:20:50.413Z,11.57
2019-04-25T11:23:19.249Z,11.10
2019-04-25T11:25:48.006Z,9.93
2019-04-25T11:28:17.405Z,9.70
2019-04-25T11:30:48.205Z,7.73
2019-04-25T11:33:17.926Z,10.03
2019-04-25T11:35:47.826Z,7.30
2019-04-25T11:38:18.749Z,5.73
2019-04-25T11:40:55.429Z,7.57
2019-04-25T11:43:24.226Z,9.63
2019-04-25T11:45:54.056Z,8.17
2019-04-25T11:48:23.856Z,8.20
2019-04-25T11:50:55.715Z,8.33
2019-04-25T11:53:24.974Z,6.60
2019-04-25T11:55:54.713Z,11.33
2019-04-25T11:58:24.218Z,6.87
2019-04-25T12:00:54.178Z,8.80
2019-04-25T12:03:24.632Z,6.70
2019-04-25T12:05:53.449Z,16.90
2019-04-25T12:08:24.294Z,9.47
2019-04-25T12:10:54.808Z,14.00
2019-04-25T12:13:24.273Z,16.90
2019-04-25T12:15:54.823Z,12.17
2019-04-25T12:18:23.656Z,17.20
2019-04-25T12:20:54.847Z,18.00
2019-04-25T12:23:23.401Z,15.30
2019-04-25T12:25:53.962Z,19.70
2019-04-25T12:28:23.551Z,18.27
2019-04-25T12:30:54.983Z,23.60
2019-04-25T12:33:23.892Z,17.37
2019-04-25T12:35:54.184Z,15.60
2019-04-25T12:38:24.572Z,20.67
2019-04-25T12:40:54.409Z,20.77
2019-04-25T12:43:25.597Z,21.60
2019-04-25T12:45:58.798Z,28.13
2019-04-25T12:48:27.569Z,25.17
2019-04-25T12:50:56.710Z,30.50
2019-04-25T12:53:25.626Z,23.30
2019-04-25T12:55:54.944Z,23.33
2019-04-25T12:58:23.808Z,15.77
2019-04-25T13:00:55.694Z,17.47
2019-04-25T13:03:24.114Z,16.03
2019-04-25T13:05:53.996Z,14.57
2019-04-25T13:08:24.242Z,15.47
2019-04-25T13:10:54.345Z,16.00
2019-04-25T13:13:24.143Z,17.37
2019-04-25T13:15:53.355Z,14.97
2019-04-25T13:18:22.563Z,17.27
2019-04-25T13:20:51.564Z,14.03
2019-04-25T13:23:20.361Z,8.73
2019-04-25T13:25:49.562Z,13.93
2019-04-25T13:28:31.994Z,17.37
2019-04-25T13:31:15.109Z,9.63
2019-04-25T13:33:51.454Z,14.93
2019-04-25T13:36:21.912Z,10.77
2019-04-25T13:38:50.740Z,13.87
2019-04-25T13:41:19.485Z,15.67
2019-04-25T13:43:48.219Z,14.83
2019-04-25T13:46:20.630Z,14.43
2019-04-25T13:48:47.422Z,11.47
2019-04-25T13:51:16.184Z,11.33
2019-04-25T13:53:44.918Z,16.33
2019-04-25T13:56:13.922Z,13.87
2019-04-25T13:58:44.351Z,15.13
2019-04-25T14:01:17.039Z,13.23
2019-04-25T14:03:45.295Z,15.13
2019-04-25T14:06:14.426Z,18.70
2019-04-25T14:08:43.498Z,14.60
2019-04-25T14:11:14.005Z,12.83
2019-04-25T14:13:42.888Z,19.73
2019-04-25T14:16:21.177Z,17.03
2019-04-25T14:18:57.662Z,10.27
2019-04-25T14:21:27.249Z,14.00
2019-04-25T14:23:56.095Z,13.07
2019-04-25T14:26:25.132Z,12.73
2019-04-25T14:28:54.213Z,13.23
2019-04-25T14:31:41.322Z,18.37
2019-04-25T14:33:55.133Z,19.33
2019-04-25T14:36:25.820Z,14.93
2019-04-25T14:38:54.265Z,9.83
2019-04-25T14:41:23.784Z,9.67
2019-04-25T14:43:52.634Z,10.53
2019-04-25T14:46:21.482Z,15.43
2019-04-25T14:48:50.356Z,12.73
2019-04-25T14:51:19.145Z,11.07
2019-04-25T14:53:47.869Z,15.00
2019-04-25T14:56:18.371Z,19.33
2019-04-25T14:58:47.290Z,10.60
2019-04-25T15:01:17.860Z,21.73
2019-04-25T15:03:46.792Z,16.43
2019-04-25T15:06:15.591Z,16.83
2019-04-25T15:08:44.389Z,12.73
2019-04-25T15:11:13.154Z,19.37
2019-04-25T15:13:41.884Z,19.17
2019-04-25T15:16:10.631Z,17.77
2019-04-25T15:18:46.400Z,15.40
2019-04-25T15:21:09.846Z,18.50
2019-04-25T15:23:38.648Z,11.90
2019-04-25T15:26:07.573Z,18.90
2019-04-25T15:28:36.369Z,20.20
2019-04-25T15:31:05.236Z,10.13
2019-04-25T15:33:34.026Z,9.97
2019-04-25T15:36:07.433Z,26.70
2019-04-25T15:38:55.977Z,16.03
2019-04-25T15:41:32.422Z,10.43
2019-04-25T15:44:18.143Z,9.00
2019-04-25T15:46:48.525Z,16.13
2019-04-25T15:49:18.913Z,20.20
2019-04-25T15:51:47.628Z,22.43
2019-04-25T15:54:16.353Z,16.93
2019-04-25T15:56:45.171Z,12.97
2019-04-25T15:59:14.035Z,11.93
2019-04-25T16:01:42.830Z,14.87
2019-04-25T16:04:11.680Z,13.83
2019-04-25T16:06:40.443Z,23.70
2019-04-25T16:09:10.514Z,26.20
2019-04-25T16:11:39.445Z,18.37
2019-04-25T16:14:08.358Z,13.90
2019-04-25T16:16:37.086Z,17.03
2019-04-25T16:19:08.087Z,13.67
2019-04-25T16:21:37.683Z,12.97
2019-04-25T16:24:06.886Z,22.07
2019-04-25T16:26:35.721Z,26.70
2019-04-25T16:29:04.811Z,17.63
2019-04-25T16:31:34.561Z,10.57
2019-04-25T16:34:03.474Z,16.50
2019-04-25T16:36:32.528Z,5.83
2019-04-25T16:39:01.581Z,21.30
2019-04-25T16:41:31.477Z,12.70
2019-04-25T16:44:01.973Z,18.90
2019-04-25T16:46:32.054Z,12.30
2019-04-25T16:49:00.845Z,13.50
2019-04-25T16:51:29.882Z,16.80
2019-04-25T16:53:59.498Z,12.37
2019-04-25T16:56:29.312Z,14.87
2019-04-25T16:58:58.142Z,14.73
2019-04-25T17:01:26.982Z,22.83
2019-04-25T17:03:55.701Z,19.23
2019-04-25T17:06:24.442Z,12.07
2019-04-25T17:08:53.198Z,17.47
2019-04-25T17:11:21.975Z,11.33
2019-04-25T17:13:52.304Z,11.90
2019-04-25T17:16:39.261Z,9.80
2019-04-25T17:19:12.673Z,7.77
2019-04-25T17:21:41.481Z,8.93
2019-04-25T17:24:10.209Z,6.00
2019-04-25T17:26:39.495Z,7.70
2019-04-25T17:29:09.930Z,9.77
2019-04-25T17:31:55.705Z,5.40
2019-04-25T17:34:28.981Z,10.07
2019-04-25T17:36:59.377Z,10.17
2019-04-25T17:39:33.445Z,4.93
2019-04-25T17:42:02.248Z,4.80
2019-04-25T17:44:31.634Z,8.30
2019-04-25T17:47:06.538Z,7.90
2019-04-25T17:49:32.753Z,8.13
2019-04-25T17:52:01.712Z,11.27
2019-04-25T17:54:32.806Z,10.23
2019-04-25T17:57:01.676Z,12.90
2019-04-25T17:59:30.551Z,17.80
2019-04-25T18:01:59.387Z,15.53
2019-04-25T18:04:28.216Z,22.53
2019-04-25T18:06:56.944Z,19.47
2019-04-25T18:09:26.045Z,31.23
2019-04-25T18:11:54.854Z,50.10
2019-04-25T18:14:23.589Z,51.97
2019-04-25T18:16:52.401Z,59.30
2019-04-25T18:19:25.079Z,61.93
2019-04-25T18:21:54.831Z,40.73
2019-04-25T18:24:41.127Z,58.97
2019-04-25T18:27:17.375Z,49.07
2019-04-25T18:29:46.345Z,35.47
2019-04-25T18:32:15.424Z,30.13
2019-04-25T18:34:46.501Z,45.93
2019-04-25T18:37:25.970Z,46.73
2019-04-25T18:39:59.082Z,34.93
2019-04-25T18:42:36.408Z,32.67
2019-04-25T18:45:07.601Z,47.40
2019-04-25T18:47:36.965Z,28.83
2019-04-25T18:50:07.853Z,29.70
2019-04-25T18:52:47.211Z,47.30
2019-04-25T18:55:34.218Z,50.73
2019-04-25T18:58:04.610Z,51.40
2019-04-25T19:00:41.644Z,50.00
2019-04-25T19:03:23.000Z,36.83
2019-04-25T19:05:53.227Z,56.87
2019-04-25T19:08:22.505Z,60.03
2019-04-25T19:10:51.649Z,65.40
2019-04-25T19:13:20.558Z,37.13
2019-04-25T19:15:49.357Z,49.80
2019-04-25T19:18:18.135Z,53.17
2019-04-25T19:20:48.026Z,41.83
2019-04-25T19:23:16.915Z,63.87
2019-04-25T19:25:45.923Z,48.03
2019-04-25T19:28:14.776Z,52.60
2019-04-25T19:30:43.611Z,34.60
2019-04-25T19:33:12.415Z,51.23
2019-04-25T19:35:41.701Z,47.53
2019-04-25T19:38:10.518Z,46.30
2019-04-25T19:40:42.162Z,63.63
2019-04-25T19:43:12.659Z,53.17
2019-04-25T19:45:42.513Z,60.67
2019-04-25T19:48:11.431Z,45.87
2019-04-25T19:50:40.698Z,62.17
2019-04-25T19:53:10.424Z,40.60
2019-04-25T19:55:39.146Z,55.90
2019-04-25T19:58:09.518Z,65.40
2019-04-25T20:00:38.359Z,54.47
2019-04-25T20:03:08.826Z,64.63
2019-04-25T20:05:39.185Z,80.10
2019-04-25T20:08:12.002Z,61.47
2019-04-25T20:10:45.160Z,41.10
2019-04-25T20:13:13.870Z,86.70
2019-04-25T20:15:43.170Z,66.10
2019-04-25T20:18:12.990Z,50.83
2019-04-25T20:20:41.727Z,78.03
2019-04-25T20:23:10.480Z,45.57
2019-04-25T20:25:39.273Z,54.87
2019-04-25T20:28:08.097Z,72.97
2019-04-25T20:30:36.957Z,27.33
2019-04-25T20:33:05.689Z,38.90
2019-04-25T20:35:34.434Z,78.23
2019-04-25T20:38:03.281Z,54.23
2019-04-25T20:40:32.005Z,47.63
2019-04-25T20:43:00.731Z,41.80
2019-04-25T20:45:29.590Z,47.27
2019-04-25T20:47:58.298Z,28.80
2019-04-25T20:50:27.100Z,36.10
2019-04-25T20:52:55.849Z,40.03
2019-04-25T20:55:24.578Z,38.07
2019-04-25T20:57:53.314Z,30.70
2019-04-25T21:00:43.853Z,33.53
2019-04-25T21:03:12.599Z,57.57
2019-04-25T21:05:41.493Z,43.10
2019-04-25T21:08:10.315Z,40.07
2019-04-25T21:10:40.136Z,46.00
2019-04-25T21:13:10.516Z,46.03
2019-04-25T21:15:56.246Z,47.13
2019-04-25T21:18:43.403Z,45.43
2019-04-25T21:21:12.169Z,28.93
2019-04-25T21:23:40.893Z,47.07
2019-04-25T21:26:09.613Z,33.33
2019-04-25T21:28:38.366Z,47.33
2019-04-25T21:31:07.159Z,42.00
2019-04-25T21:33:35.885Z,37.13
2019-04-25T21:36:04.952Z,40.10
2019-04-25T21:38:34.149Z,36.07
2019-04-25T21:41:07.256Z,34.40
2019-04-25T21:43:37.921Z,35.67
2019-04-25T21:46:07.014Z,25.40
2019-04-25T21:48:36.141Z,41.57
2019-04-25T21:51:06.815Z,29.73
2019-04-25T21:53:35.607Z,31.00
2019-04-25T21:56:04.549Z,29.83
2019-04-25T21:58:33.281Z,32.27
2019-04-25T22:01:04.478Z,31.97
2019-04-25T22:03:33.311Z,27.67
2019-04-25T22:06:02.952Z,27.33
2019-04-25T22:08:31.913Z,26.77
2019-04-25T22:11:01.242Z,24.70
2019-04-25T22:13:30.054Z,19.03
2019-04-25T22:15:59.677Z,21.70
2019-04-25T22:18:29.072Z,9.13
2019-04-25T22:20:58.282Z,14.90
2019-04-25T22:23:27.068Z,27.33
2019-04-25T22:25:56.294Z,20.40
2019-04-25T22:28:25.596Z,25.10
2019-04-25T22:30:57.710Z,33.13
2019-04-25T22:33:44.429Z,26.77
2019-04-25T22:36:24.251Z,27.57
2019-04-25T22:39:11.687Z,30.40
2019-04-25T22:41:46.679Z,31.47
2019-04-25T22:44:15.713Z,37.27
2019-04-25T22:46:44.923Z,33.97
2019-04-25T22:49:13.633Z,34.97
2019-04-25T22:51:42.457Z,35.67
2019-04-25T22:54:11.789Z,33.10
2019-04-25T22:56:40.631Z,37.50
2019-04-25T22:59:09.755Z,32.43
2019-04-25T23:01:44.163Z,39.27
2019-04-25T23:04:30.777Z,45.13
2019-04-25T23:06:59.573Z,42.70
2019-04-25T23:09:29.967Z,59.70
2019-04-25T23:11:59.027Z,41.13
2019-04-25T23:14:28.123Z,30.67
2019-04-25T23:16:56.918Z,34.00
2019-04-25T23:19:25.686Z,28.93
2019-04-25T23:21:54.510Z,21.53
2019-04-25T23:24:24.877Z,40.20
2019-04-25T23:27:01.587Z,34.90
2019-04-25T23:29:30.385Z,31.40
2019-04-25T23:31:59.183Z,41.00
2019-04-25T23:34:28.214Z,24.77
2019-04-25T23:36:56.944Z,44.23
2019-04-25T23:39:25.969Z,44.17
2019-04-25T23:41:54.717Z,39.37
2019-04-25T23:44:23.444Z,39.50
2019-04-25T23:46:52.365Z,34.27
2019-04-25T23:49:21.122Z,37.93
2019-04-25T23:51:50.149Z,29.47
2019-04-25T23:54:18.878Z,49.13
2019-04-25T23:56:47.697Z,39.17
2019-04-25T23:59:17.731Z,29.03
